sensor_id;sensor_type;location;lat;lon;timestamp;P1;durP1;ratioP1;P2;durP2;ratioP2
21014;SDS011;19207;-23.482;-46.500;2022-11-04T00:01:15;13.70;;;2.90;;
21014;SDS011;19207;-23.482;-46.500;2022-11-04T00:04:01;8.73;;;2.72;;
21014;SDS011;19207;-23.482;-46.500;2022-11-04T00:06:48;8.73;;;2.90;;
21014;SDS011;19207;-23.482;-46.500;2022-11-04T00:09:35;12.55;;;2.92;;
21014;SDS011;19207;-23.482;-46.500;2022-11-04T00:12:21;11.18;;;3.33;;
21014;SDS011;19207;-23.482;-46.500;2022-11-04T00:15:11;11.25;;;3.30;;
21014;SDS011;19207;-23.482;-46.500;2022-11-04T00:18:16;10.00;;;2.90;;
21014;SDS011;19207;-23.482;-46.500;2022-11-04T00:21:02;11.98;;;3.15;;
21014;SDS011;19207;-23.482;-46.500;2022-11-04T00:24:12;10.93;;;3.70;;
21014;SDS011;19207;-23.482;-46.500;2022-11-04T00:27:34;11.07;;;3.72;;
21014;SDS011;19207;-23.482;-46.500;2022-11-04T00:30:39;8.43;;;3.70;;
21014;SDS011;19207;-23.482;-46.500;2022-11-04T00:33:25;16.95;;;3.67;;
21014;SDS011;19207;-23.482;-46.500;2022-11-04T00:36:12;11.00;;;3.00;;
21014;SDS011;19207;-23.482;-46.500;2022-11-04T00:38:59;14.27;;;2.90;;
21014;SDS011;19207;-23.482;-46.500;2022-11-04T00:41:45;9.82;;;2.97;;
21014;SDS011;19207;-23.482;-46.500;2022-11-04T00:44:32;7.15;;;2.80;;
21014;SDS011;19207;-23.482;-46.500;2022-11-04T00:47:20;15.25;;;2.90;;
21014;SDS011;19207;-23.482;-46.500;2022-11-04T00:50:06;13.23;;;3.50;;
21014;SDS011;19207;-23.482;-46.500;2022-11-04T00:52:59;15.48;;;3.55;;
21014;SDS011;19207;-23.482;-46.500;2022-11-04T00:55:46;11.30;;;3.40;;
21014;SDS011;19207;-23.482;-46.500;2022-11-04T00:58:33;15.68;;;5.00;;
21014;SDS011;19207;-23.482;-46.500;2022-11-04T01:01:19;25.67;;;7.25;;
21014;SDS011;19207;-23.482;-46.500;2022-11-04T01:04:07;16.15;;;7.03;;
21014;SDS011;19207;-23.482;-46.500;2022-11-04T01:06:53;16.98;;;4.55;;
21014;SDS011;19207;-23.482;-46.500;2022-11-04T01:09:40;12.32;;;5.05;;
21014;SDS011;19207;-23.482;-46.500;2022-11-04T01:12:26;18.58;;;5.00;;
21014;SDS011;19207;-23.482;-46.500;2022-11-04T01:15:13;17.17;;;4.85;;
21014;SDS011;19207;-23.482;-46.500;2022-11-04T01:17:59;15.82;;;5.45;;
21014;SDS011;19207;-23.482;-46.500;2022-11-04T01:20:45;21.52;;;6.93;;
21014;SDS011;19207;-23.482;-46.500;2022-11-04T01:23:34;27.05;;;8.45;;
21014;SDS011;19207;-23.482;-46.500;2022-11-04T01:26:22;24.20;;;8.13;;
21014;SDS011;19207;-23.482;-46.500;2022-11-04T01:29:08;18.12;;;7.30;;
21014;SDS011;19207;-23.482;-46.500;2022-11-04T01:31:55;23.50;;;6.90;;
21014;SDS011;19207;-23.482;-46.500;2022-11-04T01:34:41;26.25;;;7.93;;
21014;SDS011;19207;-23.482;-46.500;2022-11-04T01:37:27;26.58;;;7.47;;
21014;SDS011;19207;-23.482;-46.500;2022-11-04T01:40:14;21.95;;;7.07;;
21014;SDS011;19207;-23.482;-46.500;2022-11-04T01:43:01;30.67;;;8.00;;
21014;SDS011;19207;-23.482;-46.500;2022-11-04T01:45:48;31.42;;;8.15;;
21014;SDS011;19207;-23.482;-46.500;2022-11-04T01:48:38;29.45;;;8.18;;
21014;SDS011;19207;-23.482;-46.500;2022-11-04T01:51:24;27.33;;;7.55;;
21014;SDS011;19207;-23.482;-46.500;2022-11-04T01:54:12;18.70;;;7.45;;
21014;SDS011;19207;-23.482;-46.500;2022-11-04T01:56:59;25.70;;;7.95;;
21014;SDS011;19207;-23.482;-46.500;2022-11-04T01:59:47;33.40;;;9.40;;
21014;SDS011;19207;-23.482;-46.500;2022-11-04T02:02:53;30.23;;;8.40;;
21014;SDS011;19207;-23.482;-46.500;2022-11-04T02:05:42;28.85;;;8.63;;
21014;SDS011;19207;-23.482;-46.500;2022-11-04T02:08:29;28.77;;;8.57;;
21014;SDS011;19207;-23.482;-46.500;2022-11-04T02:11:16;29.35;;;9.07;;
21014;SDS011;19207;-23.482;-46.500;2022-11-04T02:14:21;29.23;;;8.77;;
21014;SDS011;19207;-23.482;-46.500;2022-11-04T02:20:08;23.12;;;7.28;;
21014;SDS011;19207;-23.482;-46.500;2022-11-04T02:43:32;13.05;;;6.25;;
21014;SDS011;19207;-23.482;-46.500;2022-11-04T02:46:25;19.92;;;6.20;;
21014;SDS011;19207;-23.482;-46.500;2022-11-04T02:49:27;12.52;;;5.78;;
21014;SDS011;19207;-23.482;-46.500;2022-11-04T02:52:35;19.73;;;5.32;;
21014;SDS011;19207;-23.482;-46.500;2022-11-04T02:55:29;13.88;;;5.18;;
21014;SDS011;19207;-23.482;-46.500;2022-11-04T02:58:20;12.32;;;5.60;;
21014;SDS011;19207;-23.482;-46.500;2022-11-04T03:01:10;30.10;;;5.22;;
21014;SDS011;19207;-23.482;-46.500;2022-11-04T03:04:09;21.08;;;5.60;;
21014;SDS011;19207;-23.482;-46.500;2022-11-04T03:06:57;14.52;;;5.40;;
21014;SDS011;19207;-23.482;-46.500;2022-11-04T03:09:46;17.25;;;4.47;;
21014;SDS011;19207;-23.482;-46.500;2022-11-04T03:12:38;8.75;;;4.22;;
21014;SDS011;19207;-23.482;-46.500;2022-11-04T03:15:30;14.55;;;4.87;;
21014;SDS011;19207;-23.482;-46.500;2022-11-04T03:21:04;18.73;;;5.87;;
21014;SDS011;19207;-23.482;-46.500;2022-11-04T03:23:52;23.45;;;6.30;;
21014;SDS011;19207;-23.482;-46.500;2022-11-04T03:26:51;19.00;;;6.30;;
21014;SDS011;19207;-23.482;-46.500;2022-11-04T03:29:47;13.00;;;5.25;;
21014;SDS011;19207;-23.482;-46.500;2022-11-04T03:35:25;13.65;;;5.00;;
21014;SDS011;19207;-23.482;-46.500;2022-11-04T03:38:12;22.62;;;5.35;;
21014;SDS011;19207;-23.482;-46.500;2022-11-04T03:40:59;13.02;;;5.30;;
21014;SDS011;19207;-23.482;-46.500;2022-11-04T03:43:47;16.58;;;4.72;;
21014;SDS011;19207;-23.482;-46.500;2022-11-04T03:46:34;17.02;;;5.20;;
21014;SDS011;19207;-23.482;-46.500;2022-11-04T03:49:21;15.45;;;4.95;;
21014;SDS011;19207;-23.482;-46.500;2022-11-04T03:52:08;18.30;;;4.72;;
21014;SDS011;19207;-23.482;-46.500;2022-11-04T03:54:55;21.73;;;4.82;;
21014;SDS011;19207;-23.482;-46.500;2022-11-04T04:00:38;13.55;;;4.75;;
21014;SDS011;19207;-23.482;-46.500;2022-11-04T04:03:31;18.15;;;4.20;;
21014;SDS011;19207;-23.482;-46.500;2022-11-04T04:06:19;18.10;;;4.97;;
21014;SDS011;19207;-23.482;-46.500;2022-11-04T04:09:18;15.77;;;5.37;;
21014;SDS011;19207;-23.482;-46.500;2022-11-04T04:15:18;20.02;;;5.20;;
21014;SDS011;19207;-23.482;-46.500;2022-11-04T04:18:05;13.57;;;5.35;;
21014;SDS011;19207;-23.482;-46.500;2022-11-04T04:20:55;14.00;;;5.07;;
21014;SDS011;19207;-23.482;-46.500;2022-11-04T04:23:43;10.35;;;4.70;;
21014;SDS011;19207;-23.482;-46.500;2022-11-04T04:26:49;10.15;;;4.35;;
21014;SDS011;19207;-23.482;-46.500;2022-11-04T04:29:56;21.02;;;4.95;;
21014;SDS011;19207;-23.482;-46.500;2022-11-04T04:32:44;14.30;;;4.68;;
21014;SDS011;19207;-23.482;-46.500;2022-11-04T04:35:33;19.17;;;5.03;;
21014;SDS011;19207;-23.482;-46.500;2022-11-04T04:38:29;13.45;;;5.50;;
21014;SDS011;19207;-23.482;-46.500;2022-11-04T04:41:35;12.57;;;6.30;;
21014;SDS011;19207;-23.482;-46.500;2022-11-04T04:44:40;13.90;;;6.07;;
21014;SDS011;19207;-23.482;-46.500;2022-11-04T04:47:48;20.77;;;6.15;;
21014;SDS011;19207;-23.482;-46.500;2022-11-04T04:50:36;20.80;;;7.90;;
21014;SDS011;19207;-23.482;-46.500;2022-11-04T04:53:23;25.10;;;8.15;;
21014;SDS011;19207;-23.482;-46.500;2022-11-04T04:56:10;39.30;;;10.60;;
21014;SDS011;19207;-23.482;-46.500;2022-11-04T04:58:57;35.95;;;11.32;;
21014;SDS011;19207;-23.482;-46.500;2022-11-04T05:01:43;42.03;;;12.85;;
21014;SDS011;19207;-23.482;-46.500;2022-11-04T05:04:30;55.53;;;12.95;;
21014;SDS011;19207;-23.482;-46.500;2022-11-04T05:07:17;44.97;;;12.88;;
21014;SDS011;19207;-23.482;-46.500;2022-11-04T05:10:05;48.35;;;13.32;;
21014;SDS011;19207;-23.482;-46.500;2022-11-04T05:12:51;53.60;;;14.23;;
21014;SDS011;19207;-23.482;-46.500;2022-11-04T05:15:57;40.63;;;13.20;;
21014;SDS011;19207;-23.482;-46.500;2022-11-04T05:18:47;59.40;;;13.00;;
21014;SDS011;19207;-23.482;-46.500;2022-11-04T05:21:36;41.33;;;12.52;;
21014;SDS011;19207;-23.482;-46.500;2022-11-04T05:24:22;33.88;;;9.60;;
21014;SDS011;19207;-23.482;-46.500;2022-11-04T05:27:09;40.42;;;9.63;;
21014;SDS011;19207;-23.482;-46.500;2022-11-04T05:29:55;36.40;;;10.00;;
21014;SDS011;19207;-23.482;-46.500;2022-11-04T05:32:42;33.78;;;9.27;;
21014;SDS011;19207;-23.482;-46.500;2022-11-04T05:35:29;35.33;;;10.50;;
21014;SDS011;19207;-23.482;-46.500;2022-11-04T05:38:16;38.15;;;11.15;;
21014;SDS011;19207;-23.482;-46.500;2022-11-04T05:41:03;27.83;;;10.13;;
21014;SDS011;19207;-23.482;-46.500;2022-11-04T05:43:50;27.65;;;8.20;;
21014;SDS011;19207;-23.482;-46.500;2022-11-04T05:46:37;25.08;;;6.93;;
21014;SDS011;19207;-23.482;-46.500;2022-11-04T05:49:24;27.92;;;7.47;;
21014;SDS011;19207;-23.482;-46.500;2022-11-04T05:52:10;24.12;;;7.93;;
21014;SDS011;19207;-23.482;-46.500;2022-11-04T05:54:57;24.80;;;7.25;;
21014;SDS011;19207;-23.482;-46.500;2022-11-04T05:57:43;27.00;;;7.75;;
21014;SDS011;19207;-23.482;-46.500;2022-11-04T06:00:30;31.42;;;8.23;;
21014;SDS011;19207;-23.482;-46.500;2022-11-04T06:03:17;29.90;;;8.00;;
21014;SDS011;19207;-23.482;-46.500;2022-11-04T06:06:04;19.67;;;7.35;;
21014;SDS011;19207;-23.482;-46.500;2022-11-04T06:08:51;22.67;;;7.45;;
21014;SDS011;19207;-23.482;-46.500;2022-11-04T06:11:38;27.45;;;8.93;;
21014;SDS011;19207;-23.482;-46.500;2022-11-04T06:14:25;31.52;;;8.57;;
21014;SDS011;19207;-23.482;-46.500;2022-11-04T06:17:15;31.30;;;9.13;;
21014;SDS011;19207;-23.482;-46.500;2022-11-04T06:20:02;36.13;;;10.02;;
21014;SDS011;19207;-23.482;-46.500;2022-11-04T06:22:50;16.02;;;8.50;;
21014;SDS011;19207;-23.482;-46.500;2022-11-04T06:25:37;27.50;;;10.43;;
21014;SDS011;19207;-23.482;-46.500;2022-11-04T06:28:23;32.90;;;11.55;;
21014;SDS011;19207;-23.482;-46.500;2022-11-04T06:31:11;30.02;;;11.70;;
21014;SDS011;19207;-23.482;-46.500;2022-11-04T06:33:58;36.90;;;11.63;;
21014;SDS011;19207;-23.482;-46.500;2022-11-04T06:36:44;29.67;;;10.70;;
21014;SDS011;19207;-23.482;-46.500;2022-11-04T06:39:31;33.50;;;11.10;;
21014;SDS011;19207;-23.482;-46.500;2022-11-04T06:42:17;32.00;;;11.75;;
21014;SDS011;19207;-23.482;-46.500;2022-11-04T06:45:04;40.12;;;11.27;;
21014;SDS011;19207;-23.482;-46.500;2022-11-04T06:47:50;27.52;;;9.90;;
21014;SDS011;19207;-23.482;-46.500;2022-11-04T06:50:37;40.28;;;9.93;;
21014;SDS011;19207;-23.482;-46.500;2022-11-04T06:53:25;25.05;;;9.23;;
21014;SDS011;19207;-23.482;-46.500;2022-11-04T06:56:12;34.97;;;9.68;;
21014;SDS011;19207;-23.482;-46.500;2022-11-04T06:58:59;29.63;;;10.02;;
21014;SDS011;19207;-23.482;-46.500;2022-11-04T07:01:46;33.95;;;11.02;;
21014;SDS011;19207;-23.482;-46.500;2022-11-04T07:04:33;30.42;;;9.70;;
21014;SDS011;19207;-23.482;-46.500;2022-11-04T07:07:19;33.85;;;10.75;;
21014;SDS011;19207;-23.482;-46.500;2022-11-04T07:10:06;33.47;;;12.35;;
21014;SDS011;19207;-23.482;-46.500;2022-11-04T07:12:53;44.35;;;13.35;;
21014;SDS011;19207;-23.482;-46.500;2022-11-04T07:15:40;47.22;;;14.10;;
21014;SDS011;19207;-23.482;-46.500;2022-11-04T07:18:27;35.58;;;14.18;;
21014;SDS011;19207;-23.482;-46.500;2022-11-04T07:21:14;33.75;;;14.02;;
21014;SDS011;19207;-23.482;-46.500;2022-11-04T07:24:01;35.03;;;12.32;;
21014;SDS011;19207;-23.482;-46.500;2022-11-04T07:26:48;38.42;;;12.63;;
21014;SDS011;19207;-23.482;-46.500;2022-11-04T07:29:35;43.75;;;12.82;;
21014;SDS011;19207;-23.482;-46.500;2022-11-04T07:32:21;56.67;;;14.32;;
21014;SDS011;19207;-23.482;-46.500;2022-11-04T07:35:08;61.83;;;12.98;;
21014;SDS011;19207;-23.482;-46.500;2022-11-04T07:37:54;84.93;;;16.15;;
21014;SDS011;19207;-23.482;-46.500;2022-11-04T07:40:42;85.65;;;15.70;;
21014;SDS011;19207;-23.482;-46.500;2022-11-04T07:43:29;89.53;;;16.33;;
21014;SDS011;19207;-23.482;-46.500;2022-11-04T07:46:16;85.87;;;16.55;;
21014;SDS011;19207;-23.482;-46.500;2022-11-04T07:49:03;61.20;;;15.93;;
21014;SDS011;19207;-23.482;-46.500;2022-11-04T07:51:50;70.30;;;15.98;;
21014;SDS011;19207;-23.482;-46.500;2022-11-04T07:54:38;60.10;;;16.70;;
21014;SDS011;19207;-23.482;-46.500;2022-11-04T07:57:25;68.22;;;17.23;;
21014;SDS011;19207;-23.482;-46.500;2022-11-04T08:00:12;48.80;;;16.87;;
21014;SDS011;19207;-23.482;-46.500;2022-11-04T08:03:01;65.32;;;19.65;;
21014;SDS011;19207;-23.482;-46.500;2022-11-04T08:05:53;56.95;;;18.45;;
21014;SDS011;19207;-23.482;-46.500;2022-11-04T08:08:40;66.78;;;20.55;;
21014;SDS011;19207;-23.482;-46.500;2022-11-04T08:11:27;70.78;;;22.17;;
21014;SDS011;19207;-23.482;-46.500;2022-11-04T08:14:14;85.10;;;24.48;;
21014;SDS011;19207;-23.482;-46.500;2022-11-04T08:17:01;76.15;;;26.30;;
21014;SDS011;19207;-23.482;-46.500;2022-11-04T08:19:48;89.13;;;25.83;;
21014;SDS011;19207;-23.482;-46.500;2022-11-04T08:22:34;95.53;;;27.13;;
21014;SDS011;19207;-23.482;-46.500;2022-11-04T08:25:21;86.95;;;26.50;;
21014;SDS011;19207;-23.482;-46.500;2022-11-04T08:28:07;91.37;;;26.77;;
21014;SDS011;19207;-23.482;-46.500;2022-11-04T08:30:58;101.25;;;28.65;;
21014;SDS011;19207;-23.482;-46.500;2022-11-04T08:33:46;107.95;;;31.05;;
21014;SDS011;19207;-23.482;-46.500;2022-11-04T08:36:34;98.15;;;32.08;;
21014;SDS011;19207;-23.482;-46.500;2022-11-04T08:39:21;96.80;;;37.90;;
21014;SDS011;19207;-23.482;-46.500;2022-11-04T08:42:09;96.75;;;35.72;;
21014;SDS011;19207;-23.482;-46.500;2022-11-04T08:44:56;217.93;;;89.13;;
21014;SDS011;19207;-23.482;-46.500;2022-11-04T08:47:42;279.27;;;122.68;;
21014;SDS011;19207;-23.482;-46.500;2022-11-04T08:50:29;261.55;;;116.05;;
21014;SDS011;19207;-23.482;-46.500;2022-11-04T08:53:16;201.82;;;87.37;;
21014;SDS011;19207;-23.482;-46.500;2022-11-04T08:56:12;158.23;;;61.65;;
21014;SDS011;19207;-23.482;-46.500;2022-11-04T08:58:59;105.43;;;32.67;;
21014;SDS011;19207;-23.482;-46.500;2022-11-04T09:01:46;83.53;;;27.30;;
21014;SDS011;19207;-23.482;-46.500;2022-11-04T09:04:33;66.95;;;21.10;;
21014;SDS011;19207;-23.482;-46.500;2022-11-04T09:07:20;50.95;;;16.15;;
21014;SDS011;19207;-23.482;-46.500;2022-11-04T09:10:07;42.60;;;16.33;;
21014;SDS011;19207;-23.482;-46.500;2022-11-04T09:12:54;39.13;;;15.48;;
21014;SDS011;19207;-23.482;-46.500;2022-11-04T09:15:41;34.90;;;15.38;;
21014;SDS011;19207;-23.482;-46.500;2022-11-04T09:18:27;26.12;;;12.25;;
21014;SDS011;19207;-23.482;-46.500;2022-11-04T09:21:14;20.70;;;9.73;;
21014;SDS011;19207;-23.482;-46.500;2022-11-04T09:24:00;26.92;;;10.38;;
21014;SDS011;19207;-23.482;-46.500;2022-11-04T09:26:46;24.85;;;9.07;;
21014;SDS011;19207;-23.482;-46.500;2022-11-04T09:29:32;22.42;;;7.95;;
21014;SDS011;19207;-23.482;-46.500;2022-11-04T09:32:20;24.60;;;9.45;;
21014;SDS011;19207;-23.482;-46.500;2022-11-04T09:35:06;20.67;;;9.50;;
21014;SDS011;19207;-23.482;-46.500;2022-11-04T09:37:53;30.27;;;11.10;;
21014;SDS011;19207;-23.482;-46.500;2022-11-04T09:40:40;26.40;;;10.77;;
21014;SDS011;19207;-23.482;-46.500;2022-11-04T09:46:19;28.95;;;10.27;;
21014;SDS011;19207;-23.482;-46.500;2022-11-04T09:49:07;27.83;;;9.98;;
21014;SDS011;19207;-23.482;-46.500;2022-11-04T09:51:55;28.87;;;9.05;;
21014;SDS011;19207;-23.482;-46.500;2022-11-04T09:54:46;29.92;;;9.18;;
21014;SDS011;19207;-23.482;-46.500;2022-11-04T09:57:34;28.48;;;7.37;;
21014;SDS011;19207;-23.482;-46.500;2022-11-04T10:00:20;24.60;;;7.25;;
21014;SDS011;19207;-23.482;-46.500;2022-11-04T10:06:04;24.08;;;7.43;;
21014;SDS011;19207;-23.482;-46.500;2022-11-04T10:15:06;25.30;;;7.60;;
21014;SDS011;19207;-23.482;-46.500;2022-11-04T10:23:39;30.83;;;12.40;;
21014;SDS011;19207;-23.482;-46.500;2022-11-04T10:26:28;22.35;;;9.30;;
21014;SDS011;19207;-23.482;-46.500;2022-11-04T10:32:18;15.50;;;7.50;;
21014;SDS011;19207;-23.482;-46.500;2022-11-04T10:35:14;18.95;;;5.97;;
21014;SDS011;19207;-23.482;-46.500;2022-11-04T10:38:14;19.02;;;5.05;;
21014;SDS011;19207;-23.482;-46.500;2022-11-04T10:41:01;11.45;;;3.50;;
21014;SDS011;19207;-23.482;-46.500;2022-11-04T10:43:53;8.93;;;3.30;;
21014;SDS011;19207;-23.482;-46.500;2022-11-04T10:46:49;7.07;;;2.75;;
21014;SDS011;19207;-23.482;-46.500;2022-11-04T10:49:41;16.60;;;3.08;;
21014;SDS011;19207;-23.482;-46.500;2022-11-04T10:52:33;6.12;;;3.30;;
21014;SDS011;19207;-23.482;-46.500;2022-11-04T10:58:35;11.07;;;4.62;;
21014;SDS011;19207;-23.482;-46.500;2022-11-04T11:01:27;15.50;;;4.55;;
21014;SDS011;19207;-23.482;-46.500;2022-11-04T11:04:13;9.60;;;3.87;;
21014;SDS011;19207;-23.482;-46.500;2022-11-04T11:07:10;10.90;;;4.12;;
21014;SDS011;19207;-23.482;-46.500;2022-11-04T11:09:56;16.60;;;4.43;;
21014;SDS011;19207;-23.482;-46.500;2022-11-04T11:12:52;13.68;;;4.55;;
21014;SDS011;19207;-23.482;-46.500;2022-11-04T11:15:39;15.40;;;4.37;;
21014;SDS011;19207;-23.482;-46.500;2022-11-04T11:18:26;17.70;;;4.85;;
21014;SDS011;19207;-23.482;-46.500;2022-11-04T11:21:14;5.68;;;2.87;;
21014;SDS011;19207;-23.482;-46.500;2022-11-04T11:24:12;7.30;;;2.50;;
21014;SDS011;19207;-23.482;-46.500;2022-11-04T11:27:01;11.15;;;3.05;;
21014;SDS011;19207;-23.482;-46.500;2022-11-04T11:29:48;15.05;;;3.65;;
21014;SDS011;19207;-23.482;-46.500;2022-11-04T11:32:40;10.13;;;3.17;;
21014;SDS011;19207;-23.482;-46.500;2022-11-04T11:35:30;12.23;;;2.70;;
21014;SDS011;19207;-23.482;-46.500;2022-11-04T11:38:21;8.60;;;2.70;;
21014;SDS011;19207;-23.482;-46.500;2022-11-04T11:41:12;9.40;;;2.40;;
21014;SDS011;19207;-23.482;-46.500;2022-11-04T11:44:07;8.75;;;2.62;;
21014;SDS011;19207;-23.482;-46.500;2022-11-04T11:50:19;6.45;;;1.85;;
21014;SDS011;19207;-23.482;-46.500;2022-11-04T11:53:18;4.28;;;1.85;;
21014;SDS011;19207;-23.482;-46.500;2022-11-04T11:56:24;5.72;;;2.08;;
21014;SDS011;19207;-23.482;-46.500;2022-11-04T12:02:09;4.30;;;2.05;;
21014;SDS011;19207;-23.482;-46.500;2022-11-04T12:04:57;6.05;;;1.60;;
21014;SDS011;19207;-23.482;-46.500;2022-11-04T12:14:16;7.35;;;4.97;;
21014;SDS011;19207;-23.482;-46.500;2022-11-04T12:23:16;4.72;;;3.50;;
21014;SDS011;19207;-23.482;-46.500;2022-11-04T12:26:14;3.92;;;1.70;;
21014;SDS011;19207;-23.482;-46.500;2022-11-04T12:32:03;2.83;;;1.40;;
21014;SDS011;19207;-23.482;-46.500;2022-11-04T12:37:51;5.40;;;4.85;;
21014;SDS011;19207;-23.482;-46.500;2022-11-04T12:40:47;5.25;;;3.53;;
21014;SDS011;19207;-23.482;-46.500;2022-11-04T12:55:04;6.90;;;5.50;;
21014;SDS011;19207;-23.482;-46.500;2022-11-04T12:58:05;10.20;;;1.65;;
21014;SDS011;19207;-23.482;-46.500;2022-11-04T13:00:57;2.40;;;1.27;;
21014;SDS011;19207;-23.482;-46.500;2022-11-04T13:07:07;7.47;;;1.98;;
21014;SDS011;19207;-23.482;-46.500;2022-11-04T13:09:57;4.07;;;1.92;;
21014;SDS011;19207;-23.482;-46.500;2022-11-04T13:12:44;7.60;;;1.70;;
21014;SDS011;19207;-23.482;-46.500;2022-11-04T13:15:34;4.65;;;1.52;;
21014;SDS011;19207;-23.482;-46.500;2022-11-04T13:18:24;5.85;;;1.73;;
21014;SDS011;19207;-23.482;-46.500;2022-11-04T13:21:12;2.15;;;1.30;;
21014;SDS011;19207;-23.482;-46.500;2022-11-04T13:24:13;8.75;;;1.77;;
21014;SDS011;19207;-23.482;-46.500;2022-11-04T13:27:08;9.40;;;1.92;;
21014;SDS011;19207;-23.482;-46.500;2022-11-04T13:39:23;5.15;;;1.70;;
21014;SDS011;19207;-23.482;-46.500;2022-11-04T13:45:09;7.60;;;2.00;;
21014;SDS011;19207;-23.482;-46.500;2022-11-04T13:47:58;4.25;;;1.60;;
21014;SDS011;19207;-23.482;-46.500;2022-11-04T13:50:51;3.85;;;1.60;;
21014;SDS011;19207;-23.482;-46.500;2022-11-04T13:59:25;7.60;;;2.30;;
21014;SDS011;19207;-23.482;-46.500;2022-11-04T14:04:58;5.97;;;3.10;;
21014;SDS011;19207;-23.482;-46.500;2022-11-04T14:08:09;6.85;;;2.05;;
21014;SDS011;19207;-23.482;-46.500;2022-11-04T14:10:58;6.90;;;1.70;;
21014;SDS011;19207;-23.482;-46.500;2022-11-04T14:13:44;5.18;;;1.90;;
21014;SDS011;19207;-23.482;-46.500;2022-11-04T14:16:38;4.43;;;2.55;;
21014;SDS011;19207;-23.482;-46.500;2022-11-04T14:22:31;9.70;;;2.35;;
21014;SDS011;19207;-23.482;-46.500;2022-11-04T14:25:32;4.28;;;1.92;;
21014;SDS011;19207;-23.482;-46.500;2022-11-04T14:28:24;3.90;;;2.10;;
21014;SDS011;19207;-23.482;-46.500;2022-11-04T14:31:13;6.32;;;1.80;;
21014;SDS011;19207;-23.482;-46.500;2022-11-04T14:33:59;3.70;;;1.67;;
21014;SDS011;19207;-23.482;-46.500;2022-11-04T14:36:46;5.28;;;1.70;;
21014;SDS011;19207;-23.482;-46.500;2022-11-04T14:39:34;4.43;;;1.80;;
21014;SDS011;19207;-23.482;-46.500;2022-11-04T14:45:41;4.12;;;1.70;;
21014;SDS011;19207;-23.482;-46.500;2022-11-04T14:48:28;8.73;;;2.08;;
21014;SDS011;19207;-23.482;-46.500;2022-11-04T14:51:38;4.80;;;2.10;;
21014;SDS011;19207;-23.482;-46.500;2022-11-04T14:54:24;7.03;;;2.40;;
21014;SDS011;19207;-23.482;-46.500;2022-11-04T14:57:13;4.37;;;2.20;;
21014;SDS011;19207;-23.482;-46.500;2022-11-04T15:03:22;6.25;;;2.65;;
21014;SDS011;19207;-23.482;-46.500;2022-11-04T15:06:10;11.50;;;3.92;;
21014;SDS011;19207;-23.482;-46.500;2022-11-04T15:08:57;12.55;;;2.22;;
21014;SDS011;19207;-23.482;-46.500;2022-11-04T15:11:44;19.17;;;2.42;;
21014;SDS011;19207;-23.482;-46.500;2022-11-04T15:18:22;2.70;;;1.75;;
21014;SDS011;19207;-23.482;-46.500;2022-11-04T15:21:12;11.55;;;2.08;;
21014;SDS011;19207;-23.482;-46.500;2022-11-04T15:24:13;4.65;;;1.67;;
21014;SDS011;19207;-23.482;-46.500;2022-11-04T15:27:04;6.37;;;1.50;;
21014;SDS011;19207;-23.482;-46.500;2022-11-04T15:30:00;4.00;;;1.50;;
21014;SDS011;19207;-23.482;-46.500;2022-11-04T15:32:54;3.78;;;1.70;;
21014;SDS011;19207;-23.482;-46.500;2022-11-04T15:35:42;3.83;;;1.70;;
21014;SDS011;19207;-23.482;-46.500;2022-11-04T15:38:28;6.82;;;2.17;;
21014;SDS011;19207;-23.482;-46.500;2022-11-04T15:41:15;7.20;;;2.58;;
21014;SDS011;19207;-23.482;-46.500;2022-11-04T15:44:26;14.30;;;4.50;;
21014;SDS011;19207;-23.482;-46.500;2022-11-04T15:50:03;3.65;;;1.60;;
21014;SDS011;19207;-23.482;-46.500;2022-11-04T15:53:00;3.15;;;1.55;;
21014;SDS011;19207;-23.482;-46.500;2022-11-04T15:55:46;5.53;;;1.60;;
21014;SDS011;19207;-23.482;-46.500;2022-11-04T15:58:33;5.97;;;1.85;;
21014;SDS011;19207;-23.482;-46.500;2022-11-04T16:01:20;5.62;;;2.05;;
21014;SDS011;19207;-23.482;-46.500;2022-11-04T16:04:06;6.35;;;3.70;;
21014;SDS011;19207;-23.482;-46.500;2022-11-04T16:10:25;7.10;;;1.80;;
21014;SDS011;19207;-23.482;-46.500;2022-11-04T16:18:56;5.82;;;1.67;;
21014;SDS011;19207;-23.482;-46.500;2022-11-04T16:21:43;2.40;;;1.48;;
21014;SDS011;19207;-23.482;-46.500;2022-11-04T16:24:30;7.18;;;1.62;;
21014;SDS011;19207;-23.482;-46.500;2022-11-04T16:27:18;7.45;;;2.10;;
21014;SDS011;19207;-23.482;-46.500;2022-11-04T16:30:11;2.65;;;1.50;;
21014;SDS011;19207;-23.482;-46.500;2022-11-04T16:33:09;6.30;;;1.87;;
21014;SDS011;19207;-23.482;-46.500;2022-11-04T16:35:55;3.85;;;1.70;;
21014;SDS011;19207;-23.482;-46.500;2022-11-04T16:38:42;8.10;;;1.75;;
21014;SDS011;19207;-23.482;-46.500;2022-11-04T16:41:29;7.10;;;1.80;;
21014;SDS011;19207;-23.482;-46.500;2022-11-04T16:44:20;6.70;;;1.90;;
21014;SDS011;19207;-23.482;-46.500;2022-11-04T16:47:07;5.12;;;1.80;;
21014;SDS011;19207;-23.482;-46.500;2022-11-04T16:49:59;2.80;;;1.45;;
21014;SDS011;19207;-23.482;-46.500;2022-11-04T16:52:45;4.20;;;2.17;;
21014;SDS011;19207;-23.482;-46.500;2022-11-04T16:55:31;4.87;;;2.00;;
21014;SDS011;19207;-23.482;-46.500;2022-11-04T16:58:18;4.03;;;2.00;;
21014;SDS011;19207;-23.482;-46.500;2022-11-04T17:01:04;5.18;;;1.80;;
21014;SDS011;19207;-23.482;-46.500;2022-11-04T17:03:51;9.43;;;2.97;;
21014;SDS011;19207;-23.482;-46.500;2022-11-04T17:06:37;5.35;;;2.17;;
21014;SDS011;19207;-23.482;-46.500;2022-11-04T17:09:24;5.28;;;1.92;;
21014;SDS011;19207;-23.482;-46.500;2022-11-04T17:12:10;3.53;;;1.67;;
21014;SDS011;19207;-23.482;-46.500;2022-11-04T17:15:02;5.00;;;2.08;;
21014;SDS011;19207;-23.482;-46.500;2022-11-04T17:18:12;3.03;;;1.70;;
21014;SDS011;19207;-23.482;-46.500;2022-11-04T17:21:01;5.75;;;1.73;;
21014;SDS011;19207;-23.482;-46.500;2022-11-04T17:23:49;9.50;;;2.05;;
21014;SDS011;19207;-23.482;-46.500;2022-11-04T17:26:36;4.05;;;1.77;;
21014;SDS011;19207;-23.482;-46.500;2022-11-04T17:29:23;5.68;;;2.15;;
21014;SDS011;19207;-23.482;-46.500;2022-11-04T17:32:10;3.28;;;1.60;;
21014;SDS011;19207;-23.482;-46.500;2022-11-04T17:34:57;6.60;;;1.83;;
21014;SDS011;19207;-23.482;-46.500;2022-11-04T17:37:44;4.80;;;2.12;;
21014;SDS011;19207;-23.482;-46.500;2022-11-04T17:40:31;6.80;;;1.90;;
21014;SDS011;19207;-23.482;-46.500;2022-11-04T17:43:38;7.95;;;2.20;;
21014;SDS011;19207;-23.482;-46.500;2022-11-04T17:46:42;7.40;;;1.90;;
21014;SDS011;19207;-23.482;-46.500;2022-11-04T17:49:33;8.57;;;1.73;;
21014;SDS011;19207;-23.482;-46.500;2022-11-04T17:52:20;8.20;;;2.12;;
21014;SDS011;19207;-23.482;-46.500;2022-11-04T17:55:07;9.15;;;2.37;;
21014;SDS011;19207;-23.482;-46.500;2022-11-04T17:57:54;3.45;;;2.08;;
21014;SDS011;19207;-23.482;-46.500;2022-11-04T18:00:41;5.60;;;2.20;;
21014;SDS011;19207;-23.482;-46.500;2022-11-04T18:03:27;5.10;;;1.87;;
21014;SDS011;19207;-23.482;-46.500;2022-11-04T18:06:13;10.23;;;3.50;;
21014;SDS011;19207;-23.482;-46.500;2022-11-04T18:09:00;7.43;;;3.35;;
21014;SDS011;19207;-23.482;-46.500;2022-11-04T18:11:48;10.50;;;3.08;;
21014;SDS011;19207;-23.482;-46.500;2022-11-04T18:14:52;7.93;;;2.53;;
21014;SDS011;19207;-23.482;-46.500;2022-11-04T18:17:40;7.22;;;1.95;;
21014;SDS011;19207;-23.482;-46.500;2022-11-04T18:20:26;6.35;;;1.95;;
21014;SDS011;19207;-23.482;-46.500;2022-11-04T18:23:13;10.35;;;2.58;;
21014;SDS011;19207;-23.482;-46.500;2022-11-04T18:25:59;5.57;;;1.50;;
21014;SDS011;19207;-23.482;-46.500;2022-11-04T18:28:47;9.70;;;1.70;;
21014;SDS011;19207;-23.482;-46.500;2022-11-04T18:31:34;7.97;;;2.42;;